Time;durP1;ratioP1;P1;durP2;ratioP2;P2;SDS_P1;SDS_P2;PMS_P1;PMS_P2;Temp;Humidity;BMP_temperature;BMP_pressure;BME280_temperature;BME280_humidity;BME280_pressure;Samples;Min_cycle;Max_cycle;Signal;HPM_P1;HPM_P2
2022/05/16 00:02:11;;;;;;;1.53;1.30;;;10.90;89.80;10.80;100967.00;;;;4953194;28;94130;-65
2022/05/16 00:04:39;;;;;;;2.37;0.80;;;10.80;90.20;10.70;100974.00;;;;4955987;28;92616;-65
2022/05/16 00:07:05;;;;;;;1.00;0.90;;;10.80;90.40;10.70;100967.00;;;;4955244;28;92911;-65
2022/05/16 00:09:32;;;;;;;1.20;0.70;;;10.70;90.60;10.70;100969.00;;;;4954560;28;93277;-65
2022/05/16 00:11:57;;;;;;;0.80;0.67;;;10.70;90.90;10.60;100973.00;;;;4946951;28;95129;-65
2022/05/16 00:14:23;;;;;;;2.73;1.20;;;10.70;91.10;10.60;100970.00;;;;4935766;28;94830;-66
2022/05/16 00:16:49;;;;;;;3.40;1.20;;;10.70;91.40;10.60;100980.00;;;;4951829;28;92855;-65
2022/05/16 00:19:15;;;;;;;4.00;1.30;;;10.60;91.70;10.50;100973.00;;;;4943682;28;108296;-65
2022/05/16 00:21:40;;;;;;;1.13;1.07;;;10.60;92.10;10.50;100977.00;;;;4949260;28;123376;-65
2022/05/16 00:24:06;;;;;;;2.63;1.03;;;10.60;92.50;10.40;100969.00;;;;4934023;28;114521;-66
2022/05/16 00:26:34;;;;;;;1.83;1.73;;;10.50;93.00;10.40;100967.00;;;;4953137;28;95703;-65
2022/05/16 00:29:00;;;;;;;1.00;0.90;;;10.40;93.70;10.30;100964.00;;;;4947265;28;92278;-65
2022/05/16 00:31:25;;;;;;;1.53;1.23;;;10.30;94.10;10.20;100964.00;;;;4937679;28;93718;-66
2022/05/16 00:33:51;;;;;;;0.80;0.80;;;10.30;94.40;10.10;100969.00;;;;4955106;28;92954;-65
2022/05/16 00:36:17;;;;;;;1.07;0.97;;;10.20;94.60;10.10;100976.00;;;;4954159;28;110664;-66
2022/05/16 00:38:42;;;;;;;2.07;1.57;;;10.10;95.10;10.00;100971.00;;;;4941254;28;109060;-65
2022/05/16 00:41:09;;;;;;;2.20;1.17;;;10.10;95.60;10.00;100975.00;;;;4953622;28;120876;-65
2022/05/16 00:43:58;;;;;;;1.30;1.23;;;10.00;95.90;9.90;100981.00;;;;4954389;28;93725;-65
2022/05/16 00:46:29;;;;;;;2.13;1.03;;;10.00;96.90;9.80;100975.00;;;;4955576;28;92690;-64
2022/05/16 00:48:55;;;;;;;1.50;1.40;;;9.90;97.90;9.70;100976.00;;;;4949462;28;93180;-65
2022/05/16 00:51:31;;;;;;;2.10;1.23;;;9.80;98.60;9.70;100973.00;;;;4934648;28;93121;-65
2022/05/16 00:54:07;;;;;;;1.80;1.30;;;9.70;99.00;9.60;100983.00;;;;4967609;28;92195;-65
2022/05/16 00:56:33;;;;;;;1.07;0.97;;;9.70;99.20;9.60;100985.00;;;;4952759;28;98662;-65
2022/05/16 00:58:59;;;;;;;1.87;0.83;;;9.70;99.60;9.60;100988.00;;;;4949426;28;109248;-65
2022/05/16 01:06:57;;;;;;;0.87;0.87;;;9.60;99.80;9.60;100987.00;;;;4934659;28;92831;-65
2022/05/16 01:09:23;;;;;;;1.07;0.97;;;9.60;99.80;9.60;100990.00;;;;4942244;28;109864;-65
2022/05/16 01:11:49;;;;;;;1.03;0.87;;;9.60;99.90;9.60;100989.00;;;;4953643;28;122967;-65
2022/05/16 01:14:44;;;;;;;0.93;0.93;;;9.60;99.90;9.50;100986.00;;;;4953616;28;108995;-66
2022/05/16 01:17:11;;;;;;;1.50;1.23;;;9.60;99.90;9.50;100987.00;;;;4952268;28;93009;-65
2022/05/16 01:19:37;;;;;;;1.33;1.10;;;9.60;99.90;9.50;100980.00;;;;4945156;28;92289;-65
2022/05/16 01:22:16;;;;;;;1.20;1.10;;;9.50;99.90;9.40;100983.00;;;;4941575;28;93786;-65
2022/05/16 01:24:43;;;;;;;1.10;1.00;;;9.50;99.90;9.40;100973.00;;;;4952031;28;92904;-65
2022/05/16 01:27:08;;;;;;;1.23;0.90;;;9.50;99.90;9.40;100976.00;;;;4951350;28;109759;-65
2022/05/16 01:29:34;;;;;;;1.47;1.13;;;9.50;99.90;9.40;100972.00;;;;4944560;28;106899;-65
2022/05/16 01:31:59;;;;;;;1.13;1.03;;;9.50;99.90;9.40;100969.00;;;;4940015;28;123325;-65
2022/05/16 01:34:25;;;;;;;2.10;1.30;;;9.50;99.90;9.40;100975.00;;;;4953764;28;122605;-66
2022/05/16 01:36:51;;;;;;;1.83;1.13;;;9.50;99.90;9.40;100969.00;;;;4948939;28;110108;-66
2022/05/16 01:39:16;;;;;;;2.57;1.43;;;9.70;99.90;9.40;100967.00;;;;4942745;28;109082;-65
2022/05/16 01:41:42;;;;;;;2.27;1.30;;;9.50;99.90;9.40;100972.00;;;;4953749;28;104414;-65
2022/05/16 01:44:08;;;;;;;2.33;1.17;;;9.50;99.90;9.50;100966.00;;;;4953050;28;122720;-65
2022/05/16 01:46:39;;;;;;;1.27;1.17;;;9.50;99.90;9.50;100962.00;;;;4953840;28;92986;-65
2022/05/16 01:49:08;;;;;;;2.20;1.30;;;9.50;99.90;9.50;100973.00;;;;4949430;28;92766;-66
2022/05/16 01:51:34;;;;;;;0.90;0.90;;;9.50;99.90;9.40;100958.00;;;;4933552;28;94807;-65
2022/05/16 01:54:02;;;;;;;2.03;1.20;;;9.50;99.90;9.40;100960.00;;;;4950673;28;124558;-65
2022/05/16 01:56:27;;;;;;;1.60;1.00;;;9.50;99.90;9.30;100959.00;;;;4954113;28;92642;-65
2022/05/16 01:58:53;;;;;;;1.07;0.90;;;9.40;99.90;9.30;100954.00;;;;4952640;28;108948;-65
2022/05/16 02:01:20;;;;;;;1.47;1.10;;;9.40;99.90;9.30;100956.00;;;;4950704;28;123865;-65
2022/05/16 02:03:48;;;;;;;1.17;1.10;;;9.40;99.90;9.30;100943.00;;;;4953823;28;93555;-66
2022/05/16 02:06:15;;;;;;;1.60;1.50;;;9.30;99.90;9.20;100947.00;;;;4951315;28;93122;-66
2022/05/16 02:08:42;;;;;;;1.77;1.13;;;9.30;99.90;9.20;100941.00;;;;4943055;28;92288;-66
2022/05/16 02:11:08;;;;;;;1.63;1.23;;;9.30;99.90;9.20;100939.00;;;;4953303;28;93836;-66
2022/05/16 02:13:37;;;;;;;2.00;1.20;;;9.30;99.90;9.20;100943.00;;;;4953044;28;116429;-66
2022/05/16 02:16:04;;;;;;;0.67;0.67;;;9.30;99.90;9.20;100932.00;;;;4953329;28;93683;-66
2022/05/16 02:18:29;;;;;;;0.87;0.87;;;9.30;99.90;9.30;100942.00;;;;4953280;28;92677;-66
2022/05/16 02:24:38;;;;;;;1.50;1.20;;;9.30;99.90;9.30;100930.00;;;;4934135;28;122841;-65
2022/05/16 02:26:27;;;;;;;1.33;1.23;;;9.30;99.90;9.30;100931.00;;;;4949732;28;92696;-65
2022/05/16 02:28:53;;;;;;;1.33;1.23;;;9.30;99.90;9.30;100927.00;;;;4951856;28;93095;-65
2022/05/16 02:31:22;;;;;;;2.40;1.20;;;9.30;99.90;9.30;100915.00;;;;4933889;28;121436;-65
2022/05/16 02:33:48;;;;;;;1.17;1.07;;;9.30;99.90;9.20;100915.00;;;;4953763;28;93349;-65
2022/05/16 02:36:15;;;;;;;1.50;1.23;;;9.30;99.90;9.20;100920.00;;;;4953244;28;93003;-66
2022/05/16 02:38:42;;;;;;;1.00;1.00;;;9.30;99.90;9.20;100918.00;;;;4949567;28;92724;-65
2022/05/16 02:41:08;;;;;;;0.90;0.77;;;9.30;99.90;9.20;100913.00;;;;4951233;28;102569;-65
2022/05/16 02:43:33;;;;;;;1.83;1.27;;;9.30;99.90;9.20;100910.00;;;;4952691;28;112309;-65
2022/05/16 02:46:31;;;;;;;2.53;1.20;;;9.30;99.90;9.20;100898.00;;;;4952081;28;108776;-65
2022/05/16 02:48:57;;;;;;;1.67;1.27;;;9.30;99.90;9.20;100904.00;;;;4952589;28;93095;-65
2022/05/16 02:51:23;;;;;;;3.07;1.53;;;9.30;99.90;9.30;100919.00;;;;4951321;28;112732;-65
2022/05/16 02:53:49;;;;;;;1.73;1.27;;;9.30;99.90;9.30;100911.00;;;;4949593;28;93889;-65
2022/05/16 02:56:15;;;;;;;1.63;1.17;;;9.30;99.90;9.30;100917.00;;;;4952685;28;92907;-65
2022/05/16 02:58:43;;;;;;;0.93;0.90;;;9.40;99.90;9.30;100910.00;;;;4952509;28;106962;-66
2022/05/16 03:01:10;;;;;;;0.80;0.80;;;9.40;99.90;9.30;100907.00;;;;4933114;28;93799;-65
2022/05/16 03:03:37;;;;;;;1.90;0.87;;;9.40;99.90;9.40;100913.00;;;;4933408;28;93178;-65
2022/05/16 03:06:03;;;;;;;1.23;1.13;;;9.40;99.90;9.40;100902.00;;;;4932482;28;93839;-66
2022/05/16 03:08:29;;;;;;;1.47;1.20;;;9.40;99.90;9.40;100913.00;;;;4932956;28;107719;-65
2022/05/16 03:10:55;;;;;;;1.17;1.07;;;9.50;99.90;9.50;100908.00;;;;4944529;28;107639;-66
2022/05/16 03:13:20;;;;;;;0.90;0.90;;;9.50;99.90;9.50;100902.00;;;;4931904;28;122043;-65
2022/05/16 03:15:46;;;;;;;12.50;1.40;;;9.50;99.90;9.50;100912.00;;;;4932942;28;109704;-65
2022/05/16 03:18:12;;;;;;;2.13;1.00;;;9.50;99.90;9.50;100913.00;;;;4932806;28;92771;-65
2022/05/16 03:20:47;;;;;;;3.13;1.30;;;9.50;99.90;9.50;100914.00;;;;4945223;28;123711;-65
2022/05/16 03:23:12;;;;;;;1.83;1.03;;;9.60;99.90;9.50;100914.00;;;;4934544;28;121935;-65
2022/05/16 03:25:41;;;;;;;1.17;1.00;;;9.60;99.90;9.50;100906.00;;;;4933247;28;92710;-65
2022/05/16 03:28:07;;;;;;;2.23;1.10;;;9.50;99.90;9.50;100913.00;;;;4931935;28;108615;-66
2022/05/16 03:30:33;;;;;;;1.23;1.10;;;9.60;99.90;9.50;100903.00;;;;4943684;28;124789;-65
2022/05/16 03:32:59;;;;;;;6.90;1.60;;;9.50;99.90;9.50;100907.00;;;;4951958;28;94752;-65
2022/05/16 03:35:30;;;;;;;0.50;0.50;;;9.50;99.90;9.50;100896.00;;;;4952395;28;111251;-65
2022/05/16 03:37:58;;;;;;;1.07;0.90;;;9.50;99.90;9.50;100896.00;;;;4951157;28;92934;-65
2022/05/16 03:40:43;;;;;;;1.33;1.20;;;9.50;99.90;9.50;100902.00;;;;4942939;28;122010;-65
2022/05/16 03:43:10;;;;;;;2.23;1.13;;;9.50;99.90;9.50;100897.00;;;;4951821;28;92791;-65
2022/05/16 03:45:37;;;;;;;3.57;1.77;;;9.50;99.90;9.50;100905.00;;;;4952946;28;92891;-65
2022/05/16 03:48:05;;;;;;;1.27;1.23;;;9.50;99.90;9.50;100905.00;;;;4936546;28;100692;-65
2022/05/16 03:50:31;;;;;;;0.90;0.70;;;9.50;99.90;9.50;100905.00;;;;4943577;28;102379;-65
2022/05/16 03:52:59;;;;;;;1.60;1.47;;;9.50;99.90;9.50;100897.00;;;;4952179;28;92991;-65
2022/05/16 03:55:28;;;;;;;1.43;1.30;;;9.50;99.90;9.60;100897.00;;;;4951769;28;94667;-65
2022/05/16 03:57:54;;;;;;;3.23;0.90;;;9.50;99.90;9.60;100896.00;;;;4951408;28;100002;-65
2022/05/16 04:00:22;;;;;;;0.93;0.90;;;9.60;99.90;9.70;100899.00;;;;4944179;28;93738;-65
2022/05/16 04:02:48;;;;;;;2.10;1.50;;;9.60;99.90;9.70;100896.00;;;;4946954;28;92931;-65
2022/05/16 04:05:21;;;;;;;3.13;1.27;;;9.70;99.90;9.80;100902.00;;;;4956466;28;92937;-66
2022/05/16 04:07:47;;;;;;;3.53;1.00;;;9.70;99.90;9.80;100897.00;;;;4955680;28;92605;-65
2022/05/16 04:10:14;;;;;;;2.33;1.80;;;9.90;99.90;9.90;100897.00;;;;4954353;28;121783;-65
2022/05/16 04:12:41;;;;;;;3.23;1.37;;;9.90;99.90;10.00;100888.00;;;;4936335;28;101113;-65
2022/05/16 04:15:09;;;;;;;0.83;0.83;;;10.00;99.90;10.10;100883.00;;;;4935513;28;102062;-65
2022/05/16 04:17:41;;;;;;;1.40;1.17;;;10.00;99.90;10.20;100875.00;;;;4947907;28;92923;-65
2022/05/16 04:20:09;;;;;;;1.43;1.10;;;10.10;99.90;10.30;100884.00;;;;4953845;28;124505;-66
2022/05/16 04:22:35;;;;;;;1.20;1.10;;;10.20;99.90;10.40;100883.00;;;;4951170;28;94792;-65
2022/05/16 04:25:01;;;;;;;1.53;1.43;;;10.30;99.90;10.50;100882.00;;;;4955046;28;92913;-64
2022/05/16 04:27:30;;;;;;;3.07;1.30;;;10.40;99.90;10.60;100891.00;;;;4954884;28;108933;-67
2022/05/16 04:29:55;;;;;;;4.37;1.10;;;10.50;99.90;10.70;100896.00;;;;4955647;28;93079;-67
2022/05/16 04:32:21;;;;;;;4.10;1.53;;;10.60;99.90;10.80;100896.00;;;;4951718;28;122691;-64
2022/05/16 04:34:47;;;;;;;2.20;1.40;;;10.80;99.90;10.90;100893.00;;;;4936234;28;92879;-64
2022/05/16 04:37:13;;;;;;;1.40;1.13;;;10.90;99.90;11.00;100885.00;;;;4934451;28;109189;-67
2022/05/16 04:39:38;;;;;;;2.80;1.30;;;11.00;99.90;11.10;100885.00;;;;4947077;28;93039;-65
2022/05/16 04:44:49;;;;;;;2.43;1.10;;;11.20;99.90;11.40;100904.00;;;;4943107;28;93933;-65
2022/05/16 04:47:15;;;;;;;2.87;1.60;;;11.40;99.90;11.60;100908.00;;;;4951129;28;93162;-65
2022/05/16 04:49:41;;;;;;;0.87;0.87;;;11.50;99.90;11.70;100902.00;;;;4950152;28;123804;-67
2022/05/16 04:52:07;;;;;;;2.17;1.33;;;11.60;99.90;11.90;100909.00;;;;4948768;28;113521;-67
2022/05/16 04:54:33;;;;;;;1.73;1.60;;;11.80;99.90;12.00;100893.00;;;;4951331;28;92944;-67
2022/05/16 04:56:59;;;;;;;3.37;1.23;;;11.90;99.90;12.20;100897.00;;;;4949150;28;109402;-64
2022/05/16 04:59:24;;;;;;;1.33;1.23;;;12.10;99.90;12.30;100903.00;;;;4950581;28;121782;-66
2022/05/16 05:01:50;;;;;;;3.00;1.20;;;12.50;99.90;12.50;100907.00;;;;4945189;28;120793;-66
2022/05/16 05:04:16;;;;;;;1.93;1.37;;;12.40;99.90;12.60;100895.00;;;;4944236;28;96047;-66
2022/05/16 05:06:42;;;;;;;2.13;1.40;;;12.50;99.90;12.80;100896.00;;;;4944703;28;108970;-66
2022/05/16 05:09:08;;;;;;;2.27;1.63;;;12.70;99.90;13.00;100903.00;;;;4950047;28;94069;-67
2022/05/16 05:14:33;;;;;;;1.40;1.30;;;13.00;99.20;13.30;100900.00;;;;4950892;28;92932;-67
2022/05/16 05:17:08;;;;;;;1.37;1.27;;;13.10;98.50;13.40;100909.00;;;;4944102;28;93428;-66
2022/05/16 05:19:36;;;;;;;1.97;1.40;;;13.30;98.20;13.60;100917.00;;;;4954625;28;93296;-66
2022/05/16 05:22:03;;;;;;;2.00;1.33;;;13.40;97.80;13.70;100916.00;;;;4952854;28;93433;-66
2022/05/16 05:24:41;;;;;;;4.97;1.30;;;13.60;97.50;13.90;100922.00;;;;4939444;28;92584;-65
2022/05/16 05:27:13;;;;;;;3.43;1.80;;;13.70;97.10;14.10;100909.00;;;;4948533;28;108200;-66
2022/05/16 05:29:38;;;;;;;1.40;1.30;;;13.90;96.80;14.30;100912.00;;;;4953126;28;123571;-66
2022/05/16 05:32:07;;;;;;;4.30;1.50;;;14.10;96.40;14.50;100908.00;;;;4952402;28;122254;-67
2022/05/16 05:34:34;;;;;;;1.67;1.53;;;14.30;95.80;14.70;100913.00;;;;4936363;28;102611;-66
2022/05/16 05:37:00;;;;;;;2.10;1.90;;;14.50;95.30;14.80;100928.00;;;;4934049;28;92965;-66
2022/05/16 05:39:26;;;;;;;1.70;1.60;;;14.60;94.80;15.00;100921.00;;;;4945157;28;93994;-67
2022/05/16 05:41:52;;;;;;;1.40;1.30;;;14.80;94.50;15.20;100915.00;;;;4952860;28;93694;-66
2022/05/16 05:44:18;;;;;;;1.90;1.70;;;15.00;94.00;15.40;100907.00;;;;4941445;28;92961;-66
2022/05/16 05:46:43;;;;;;;1.70;1.20;;;15.20;93.60;15.60;100912.00;;;;4935885;28;92820;-66
2022/05/16 05:49:13;;;;;;;2.25;1.42;;;15.30;93.00;15.80;100916.00;;;;4933248;28;122079;-66
2022/05/16 05:51:39;;;;;;;2.08;1.30;;;15.60;92.30;15.90;100913.00;;;;4934665;28;92137;-67
2022/05/16 05:54:06;;;;;;;1.58;1.33;;;15.70;91.60;16.10;100916.00;;;;4951707;28;100299;-66
2022/05/16 05:56:33;;;;;;;2.70;1.50;;;15.90;91.30;16.30;100914.00;;;;4952605;28;92869;-66
2022/05/16 05:58:59;;;;;;;1.73;1.45;;;16.10;91.00;16.50;100922.00;;;;4952719;28;95040;-66
2022/05/16 06:01:25;;;;;;;1.52;0.98;;;16.30;90.50;16.80;100919.00;;;;4953335;28;108373;-66
2022/05/16 06:03:51;;;;;;;1.40;1.20;;;16.50;90.00;17.00;100912.00;;;;4952184;28;94714;-66
2022/05/16 06:06:16;;;;;;;3.13;1.73;;;16.70;88.30;17.10;100910.00;;;;4952374;28;92891;-66
2022/05/16 06:08:42;;;;;;;3.22;1.42;;;16.90;86.10;17.30;100909.00;;;;4933605;28;105670;-66
2022/05/16 06:11:08;;;;;;;1.05;0.90;;;17.10;86.00;17.50;100914.00;;;;4933879;28;94531;-67
2022/05/16 06:13:34;;;;;;;1.30;1.15;;;17.30;85.00;17.70;100918.00;;;;4946121;28;109298;-66
2022/05/16 06:15:59;;;;;;;1.85;1.08;;;17.50;85.10;17.90;100916.00;;;;4933923;28;92095;-66
2022/05/16 06:18:25;;;;;;;3.55;1.52;;;17.70;82.70;18.10;100920.00;;;;4933539;28;95866;-66
2022/05/16 06:20:51;;;;;;;1.25;1.15;;;17.90;79.80;18.20;100930.00;;;;4933324;28;94240;-66
2022/05/16 06:23:17;;;;;;;3.95;1.27;;;18.00;78.50;18.40;100918.00;;;;4937038;28;110285;-66
2022/05/16 06:25:44;;;;;;;1.67;1.27;;;18.20;77.60;18.50;100915.00;;;;4952875;28;92793;-66
2022/05/16 06:28:20;;;;;;;1.27;1.00;;;18.30;76.40;18.70;100920.00;;;;4941466;28;95567;-66
2022/05/16 06:30:50;;;;;;;2.75;1.50;;;18.40;75.20;18.80;100917.00;;;;4953254;28;104000;-66
2022/05/16 06:33:37;;;;;;;1.23;1.13;;;18.60;74.10;19.00;100898.00;;;;4939456;28;92858;-65
2022/05/16 06:36:05;;;;;;;0.95;0.88;;;18.70;73.10;19.20;100909.00;;;;4934743;28;92713;-67
2022/05/16 06:38:33;;;;;;;1.30;1.17;;;18.90;72.20;19.40;100916.00;;;;4934233;28;93914;-66
2022/05/16 06:41:00;;;;;;;1.38;1.27;;;19.10;70.90;19.60;100911.00;;;;4933698;28;93758;-67
2022/05/16 06:43:29;;;;;;;1.33;1.20;;;19.40;70.40;19.80;100911.00;;;;4938259;28;92923;-65
2022/05/16 06:45:54;;;;;;;1.10;1.00;;;19.50;69.30;20.00;100899.00;;;;4936736;28;99513;-66
2022/05/16 06:48:21;;;;;;;1.95;1.15;;;19.70;67.90;20.30;100910.00;;;;4931257;28;124152;-67
2022/05/16 06:50:48;;;;;;;1.15;0.93;;;20.00;66.90;20.50;100897.00;;;;4933179;28;94454;-68
2022/05/16 06:53:22;;;;;;;1.80;1.52;;;20.20;66.10;20.70;100914.00;;;;4950022;28;93231;-66
2022/05/16 06:55:48;;;;;;;2.22;1.20;;;20.40;64.70;21.00;100908.00;;;;4952920;28;92824;-66
2022/05/16 06:58:14;;;;;;;1.33;1.23;;;20.70;64.10;21.20;100914.00;;;;4932816;28;93584;-66
2022/05/16 07:00:39;;;;;;;6.55;1.25;;;20.90;63.00;21.40;100914.00;;;;4942757;28;93212;-68
2022/05/16 07:03:06;;;;;;;1.90;0.80;;;21.20;60.90;21.60;100915.00;;;;4952561;28;92804;-67
2022/05/16 07:05:33;;;;;;;1.63;1.15;;;21.30;60.00;21.80;100920.00;;;;4934404;28;91998;-67
2022/05/16 07:07:59;;;;;;;1.90;1.27;;;21.50;59.60;22.00;100912.00;;;;4947039;28;92806;-66
2022/05/16 07:10:26;;;;;;;1.52;0.82;;;21.70;59.10;22.10;100917.00;;;;4934613;28;93304;-67
2022/05/16 07:12:52;;;;;;;0.90;0.90;;;21.90;58.70;22.30;100919.00;;;;4951499;28;93946;-66
2022/05/16 07:15:17;;;;;;;2.92;1.25;;;22.00;57.90;22.50;100916.00;;;;4934383;28;108010;-68
2022/05/16 07:17:43;;;;;;;1.67;1.00;;;22.30;57.60;22.80;100913.00;;;;4942067;28;93481;-66
2022/05/16 07:20:11;;;;;;;1.38;0.95;;;22.50;56.80;23.00;100921.00;;;;4951452;28;122689;-66
2022/05/16 07:22:42;;;;;;;3.15;1.33;;;22.70;56.60;23.30;100925.00;;;;4952837;28;92738;-66
2022/05/16 07:25:09;;;;;;;1.05;0.90;;;22.90;56.00;23.50;100922.00;;;;4951151;28;92804;-67
2022/05/16 07:30:19;;;;;;;1.02;0.98;;;23.40;53.90;23.80;100930.00;;;;4941878;28;92266;-67
2022/05/16 07:32:46;;;;;;;3.60;1.30;;;23.50;53.40;24.00;100921.00;;;;4946028;28;92725;-67
2022/05/16 07:35:19;;;;;;;1.75;0.80;;;23.70;53.20;24.30;100918.00;;;;4954455;28;92925;-68
2022/05/16 07:37:45;;;;;;;1.10;0.90;;;23.90;52.40;24.50;100922.00;;;;4947000;28;95735;-68
2022/05/16 07:40:13;;;;;;;3.70;1.48;;;24.20;52.30;24.70;100923.00;;;;4952236;28;94877;-68
2022/05/16 07:42:39;;;;;;;2.67;1.00;;;24.40;51.60;24.90;100920.00;;;;4941785;28;92886;-69
2022/05/16 07:45:07;;;;;;;6.55;1.50;;;24.60;51.30;25.20;100918.00;;;;4935249;28;109325;-71
2022/05/16 07:47:33;;;;;;;1.27;1.08;;;24.80;51.10;25.40;100914.00;;;;4941642;28;93630;-71
2022/05/16 07:50:00;;;;;;;2.17;1.38;;;25.10;50.40;25.60;100906.00;;;;4954905;28;93474;-70
2022/05/16 07:52:28;;;;;;;5.38;1.45;;;25.30;49.40;25.80;100911.00;;;;4955476;28;92846;-69
2022/05/16 07:54:54;;;;;;;0.75;0.75;;;25.50;49.20;26.00;100900.00;;;;4956092;28;92082;-69
2022/05/16 07:57:22;;;;;;;3.13;0.80;;;25.60;48.70;26.20;100905.00;;;;4949820;28;93867;-70
2022/05/16 07:59:48;;;;;;;5.25;1.20;;;25.80;48.10;26.30;100901.00;;;;4935814;28;93851;-69
2022/05/16 08:02:14;;;;;;;1.25;1.02;;;26.00;47.40;26.40;100891.00;;;;4934676;28;109925;-69
2022/05/16 08:04:40;;;;;;;1.63;1.13;;;26.10;46.60;26.50;100898.00;;;;4935413;28;106927;-72
2022/05/16 08:07:06;;;;;;;6.03;1.30;;;26.20;46.90;26.60;100908.00;;;;4935472;28;122823;-71
2022/05/16 08:12:30;;;;;;;0.85;0.85;;;26.40;46.00;26.90;100888.00;;;;4943374;28;92700;-69
2022/05/16 08:14:56;;;;;;;2.25;1.10;;;26.60;45.10;27.00;100892.00;;;;4935748;28;92942;-68
2022/05/16 08:17:23;;;;;;;1.17;1.08;;;26.70;45.20;27.10;100886.00;;;;4937576;28;122589;-68
2022/05/16 08:19:50;;;;;;;1.85;1.23;;;26.80;45.00;27.30;100880.00;;;;4952446;28;123100;-70
2022/05/16 08:22:17;;;;;;;1.02;0.90;;;27.00;44.70;27.50;100887.00;;;;4955374;28;93251;-71
2022/05/16 08:24:44;;;;;;;1.60;1.13;;;27.10;42.90;27.40;100884.00;;;;4944534;28;92755;-68
2022/05/16 08:27:15;;;;;;;2.33;0.93;;;27.20;42.30;27.50;100887.00;;;;4966019;28;93855;-69
2022/05/16 08:29:41;;;;;;;3.70;1.10;;;27.20;42.70;27.50;100888.00;;;;4963480;28;111857;-69
2022/05/16 08:32:07;;;;;;;0.75;0.75;;;27.20;41.30;27.40;100886.00;;;;4934692;28;109727;-68
2022/05/16 08:34:33;;;;;;;3.95;1.00;;;27.20;41.10;27.30;100894.00;;;;4936443;28;92861;-70
2022/05/16 08:39:52;;;;;;;1.00;0.65;;;27.10;42.00;27.40;100896.00;;;;4947397;28;92611;-68
2022/05/16 08:42:47;;;;;;;4.10;1.00;;;27.10;41.20;27.40;100884.00;;;;4937198;28;92886;-70
2022/05/16 08:45:18;;;;;;;1.13;0.93;;;27.10;40.60;27.40;100886.00;;;;4935492;28;91980;-68
2022/05/16 08:47:55;;;;;;;0.65;0.63;;;27.10;40.80;27.40;100884.00;;;;4963269;28;92886;-67
2022/05/16 08:51:06;;;;;;;1.45;1.05;;;27.10;39.70;27.40;100890.00;;;;4947224;28;94182;-67
2022/05/16 08:53:46;;;;;;;1.23;1.13;;;27.10;40.30;27.50;100890.00;;;;4932761;28;93845;-67
2022/05/16 08:56:33;;;;;;;0.77;0.77;;;27.10;39.10;27.50;100886.00;;;;4937315;28;93032;-69
2022/05/16 08:59:05;;;;;;;2.90;1.10;;;27.20;38.70;27.50;100894.00;;;;4952819;28;92909;-68
2022/05/16 09:01:49;;;;;;;1.92;0.85;;;27.20;39.00;27.70;100889.00;;;;4942631;28;94332;-68
2022/05/16 09:04:26;;;;;;;3.28;1.38;;;27.30;39.00;27.90;100894.00;;;;4950077;28;93174;-68
2022/05/16 09:07:14;;;;;;;1.23;1.13;;;27.40;38.30;27.80;100898.00;;;;4936514;28;93800;-68
2022/05/16 09:10:06;;;;;;;0.55;0.55;;;27.50;37.10;27.60;100894.00;;;;4948899;28;92720;-69
2022/05/16 09:13:04;;;;;;;0.98;0.70;;;27.40;36.90;27.50;100896.00;;;;4930487;28;92864;-70
2022/05/16 09:16:04;;;;;;;1.27;1.15;;;27.30;36.80;27.50;100905.00;;;;4935160;28;92791;-69
2022/05/16 09:18:38;;;;;;;2.22;1.15;;;27.20;36.90;27.40;100905.00;;;;4966289;28;92907;-71
2022/05/16 09:21:15;;;;;;;4.55;1.08;;;27.10;36.80;27.30;100889.00;;;;4939413;28;94626;-69
2022/05/16 09:23:48;;;;;;;2.33;1.02;;;27.00;36.80;27.50;100881.00;;;;4948265;28;109969;-71
2022/05/16 09:26:53;;;;;;;1.23;1.13;;;27.00;37.30;27.70;100883.00;;;;4935794;28;92869;-70
2022/05/16 09:29:39;;;;;;;1.75;1.02;;;27.30;37.20;27.90;100872.00;;;;4949498;28;92998;-70
2022/05/16 09:32:14;;;;;;;1.17;0.60;;;27.40;36.20;28.10;100875.00;;;;4962080;28;92936;-70
2022/05/16 09:34:41;;;;;;;4.07;0.82;;;27.60;36.20;28.20;100879.00;;;;4952900;28;93026;-69
2022/05/16 09:37:07;;;;;;;3.20;1.00;;;27.80;36.00;28.40;100875.00;;;;4945891;28;92842;-68
2022/05/16 09:39:34;;;;;;;2.78;1.10;;;27.90;36.00;28.40;100870.00;;;;4944136;28;93771;-70
2022/05/16 09:42:27;;;;;;;3.42;1.67;;;27.90;35.50;28.50;100870.00;;;;4945612;28;93627;-69
2022/05/16 09:45:12;;;;;;;3.10;1.25;;;28.00;36.20;28.80;100871.00;;;;4948087;28;115840;-69
2022/05/16 09:47:42;;;;;;;1.50;1.13;;;28.30;36.40;28.80;100866.00;;;;4932426;28;93775;-70
2022/05/16 09:50:09;;;;;;;2.70;0.75;;;28.40;35.20;28.70;100869.00;;;;4934321;28;92864;-73
2022/05/16 09:52:42;;;;;;;2.35;1.40;;;28.30;35.50;28.80;100867.00;;;;4950465;28;93251;-70
2022/05/16 09:55:26;;;;;;;1.20;1.10;;;28.30;35.70;28.80;100864.00;;;;4951249;28;93269;-68
2022/05/16 09:58:18;;;;;;;1.23;0.95;;;28.30;35.70;28.90;100863.00;;;;4953308;28;92885;-70
2022/05/16 10:01:02;;;;;;;3.47;1.10;;;28.30;36.00;29.10;100865.00;;;;4952744;28;92655;-68
2022/05/16 10:03:36;;;;;;;1.23;1.08;;;28.50;36.30;29.00;100855.00;;;;4948556;28;92869;-70
2022/05/16 10:06:10;;;;;;;0.98;0.80;;;28.60;35.20;29.00;100854.00;;;;4932304;28;92112;-68
2022/05/16 10:08:38;;;;;;;4.20;1.60;;;28.50;35.50;29.20;100849.00;;;;4933973;28;92701;-70
2022/05/16 10:11:18;;;;;;;1.75;1.17;;;28.60;36.00;29.70;100851.00;;;;4935952;28;108666;-68
2022/05/16 10:13:44;;;;;;;1.77;0.95;;;28.90;35.90;30.00;100837.00;;;;4934920;28;95267;-69
2022/05/16 10:16:11;;;;;;;3.70;1.50;;;29.30;35.60;30.20;100847.00;;;;4932636;28;122879;-69
2022/05/16 10:19:09;;;;;;;1.50;1.00;;;29.50;35.00;30.00;100833.00;;;;4962070;28;92909;-70
2022/05/16 10:22:07;;;;;;;4.60;0.93;;;29.50;34.80;29.60;100838.00;;;;4932530;28;93455;-69
2022/05/16 10:24:50;;;;;;;1.20;0.90;;;29.20;34.70;29.60;100834.00;;;;4952005;28;93112;-69
2022/05/16 10:27:23;;;;;;;0.90;0.90;;;29.10;35.00;29.70;100837.00;;;;4935669;28;93201;-69
2022/05/16 10:29:52;;;;;;;6.10;1.15;;;29.10;35.40;30.00;100833.00;;;;4929716;28;102701;-69
2022/05/16 10:35:30;;;;;;;1.15;0.63;;;29.60;36.00;31.20;100819.00;;;;4946933;28;93147;-70
2022/05/16 10:38:02;;;;;;;0.68;0.60;;;30.20;35.60;31.80;100822.00;;;;4944092;28;92914;-69
2022/05/16 10:40:32;;;;;;;1.95;0.60;;;30.80;35.20;32.10;100827.00;;;;4931061;28;93724;-69
2022/05/16 10:43:31;;;;;;;4.47;1.00;;;31.20;34.30;32.40;100821.00;;;;4932449;28;92756;-70
2022/05/16 10:46:14;;;;;;;1.27;1.17;;;31.50;33.40;32.10;100822.00;;;;4949401;28;93093;-69
2022/05/16 10:48:50;;;;;;;2.97;1.15;;;31.50;32.70;32.00;100819.00;;;;4945379;28;113054;-70
2022/05/16 10:51:33;;;;;;;0.93;0.60;;;31.40;33.10;32.20;100818.00;;;;4946515;28;93006;-69
2022/05/16 10:54:08;;;;;;;1.05;0.95;;;31.40;33.20;32.40;100820.00;;;;4959945;28;98464;-69
2022/05/16 10:57:07;;;;;;;4.68;1.10;;;31.60;33.40;32.50;100809.00;;;;4939875;28;94016;-69
2022/05/16 10:59:50;;;;;;;1.13;0.98;;;31.70;32.90;32.70;100804.00;;;;4946478;28;93280;-71
2022/05/16 11:02:41;;;;;;;1.92;1.02;;;32.00;32.30;32.90;100799.00;;;;4933249;28;94134;-69
2022/05/16 11:05:42;;;;;;;0.95;0.70;;;32.10;32.50;33.20;100805.00;;;;4931974;28;93294;-69
2022/05/16 11:08:19;;;;;;;3.42;0.77;;;32.40;32.00;33.10;100798.00;;;;4947888;28;94053;-69
2022/05/16 11:11:18;;;;;;;2.67;1.05;;;32.40;31.70;33.30;100798.00;;;;4950729;28;93875;-68
2022/05/16 11:14:40;;;;;;;2.05;1.13;;;32.50;32.20;33.70;100791.00;;;;4946250;28;92852;-69
2022/05/16 11:17:23;;;;;;;1.23;0.75;;;32.70;32.10;34.00;100790.00;;;;4920264;28;92972;-69
2022/05/16 11:19:57;;;;;;;2.88;1.27;;;33.10;32.30;34.00;100794.00;;;;4929434;28;94387;-69
2022/05/16 11:25:16;;;;;;;1.45;1.13;;;33.10;31.00;33.50;100791.00;;;;5058629;27;81069;-70
2022/05/16 11:28:08;;;;;;;1.17;0.60;;;32.90;31.10;33.50;100790.00;;;;5035225;27;81161;-72
2022/05/16 11:30:55;;;;;;;1.48;1.13;;;32.90;31.30;33.30;100782.00;;;;5030353;27;80921;-69
2022/05/16 11:33:47;;;;;;;1.52;1.05;;;32.80;31.00;33.30;100782.00;;;;4997032;27;81196;-70
2022/05/16 11:36:24;;;;;;;0.82;0.80;;;32.70;31.40;33.20;100785.00;;;;4997178;27;81063;-70